x

Southeast Hawaii - 205 Nm Southeast Of Hilo, Hi (51004) Wave Buoy

6:50pm - Thu 25th May 2017 All times are HST. -10 hours from GMT.

  • Sig Wave height 5.6ft
  • Swell Direction
  • Peak Period 8s
  • Average Period 6s
  • Wind
    18mph, 20mph gusts
  • Sea Temp 78°f
  • Sea Pressure 1014.5mb
  • Southeast Hawaii - 205 Nm Southeast Of Hilo, Hi
  • Southeast Hawaii - 205 Nm Southeast Of Hilo, Hi

More Historic Weather Station data

Upgrade to MSW Pro to gain access to the past 30 days of data for over 8000 Wavebouys and Weather Stations around the globe.

Join Pro

Comparision Forecast

View Surf forecast
   
Thu 05/25 6:50pm 5.5ft 8s 6s 18 20 mph 1014.5mb 78f
5:50pm 5.5ft 10s 6s 16 18 mph 1013.9mb 78f
4:50pm 5.5ft 9s 6s 18 20 mph 1013.4mb 78f
3:50pm 5.5ft 7s 6s 13 16 mph 1013.6mb 78f
2:50pm 5.5ft 8s 6s 16 18 mph 1013.9mb 78f
1:50pm 6ft 8s 6s 16 18 mph 1014.6mb 78f
12:50pm 6ft 10s 6s 13 18 mph 1015.2mb 78f
11:50am 6ft 7s 6s 16 18 mph 1015.8mb 78f
10:50am 5.5ft 8s 6s 16 18 mph 1016.2mb 78f
9:50am 6ft 8s 6s 16 18 mph 1016.5mb 78f
8:50am 6ft 8s 6s 13 16 mph 1016.2mb 78f
7:50am 5ft 9s 6s 18 20 mph 1015.8mb 78f
6:50am 6ft 8s 6s 18 22 mph 1015.2mb 78f
5:50am 6ft 7s 6s 13 18 mph 1015.1mb 78f
4:50am 5.5ft 8s 6s 13 16 mph 1014.8mb 78f
3:50am 6ft 8s 6s 13 16 mph 1014.6mb 78f
2:50am 6ft 8s 6s 13 16 mph 1014.9mb 78f
1:50am 6ft 7s 6s 13 16 mph 1015.4mb 78f
12:50am 6ft 8s 6s 13 18 mph 1015.9mb 78f
Wed 05/24 11:50pm 6ft 9s 6s 13 16 mph 1016.7mb 78f
10:50pm 6ft 8s 6s 13 20 mph 1016.7mb 78f
9:50pm 6.5ft 8s 6s 13 18 mph 1016.7mb 78f
8:50pm 7ft 7s 6s 16 18 mph 1016.2mb 78f
7:50pm 6.5ft 9s 6s 16 18 mph 1015.6mb 78f
6:50pm 6ft 11s 6s 16 18 mph 1014.9mb 78f
5:50pm 7ft 8s 6s 16 20 mph 1014.4mb 78f
4:50pm 6.5ft 7s 6s 18 20 mph 1013.9mb 78f
3:50pm 6ft 8s 6s 16 18 mph 1014.2mb 78f
2:50pm 6.5ft 8s 6s 16 20 mph 1014.5mb 78f
1:50pm 7ft 7s 6s 16 20 mph 1014.9mb 78f
12:50pm 7ft 7s 6s 16 20 mph 1015.5mb 78f
11:50am 7ft 8s 6s 16 20 mph 1016mb 78f
10:50am 6.5ft 8s 6s 18 22 mph 1016.5mb 78f
9:50am 6.5ft 8s 6s 18 20 mph 1016.6mb 78f
8:50am 6.5ft 7s 6s 16 20 mph 1016.4mb 78f
7:50am 6.5ft 8s 6s 13 18 mph 1015.9mb 78f
6:50am 7ft 7s 6s 16 18 mph 1015.4mb 78f
5:50am 7ft 7s 6s 13 16 mph 1014.9mb 78f
4:50am 7ft 7s 6s 18 22 mph 1014.3mb 78f
3:50am 6.5ft 8s 6s 18 22 mph 1014.2mb 78f
2:50am 7ft 7s 6s 16 18 mph 1014.1mb 78f
1:50am 6ft 11s 6s 20 25 mph 1014.3mb 78f
12:50am 7.5ft 8s 6s 20 25 mph 1014.9mb 78f
Tue 05/23 11:50pm 7ft 7s 6s 20 25 mph 1015.6mb 78f
10:50pm 6.5ft 8s 6s 20 22 mph 1015.9mb 78f
9:50pm 7ft 7s 6s 18 20 mph 1016.1mb 78f
8:50pm 8ft 7s 6s 16 18 mph 1015.8mb 78f
7:50pm 7ft 7s 6s 20 25 mph 1015mb 78f
6:50pm 7.5ft 8s 6s 20 22 mph 1014.4mb 78f
5:50pm 7.5ft 7s 6s 22 27 mph 1013.8mb 78f
4:50pm 6.5ft 7s 6s 20 25 mph 1013.8mb 78f
3:50pm 7ft 8s 6s 20 22 mph 1013.6mb 78f
2:50pm 7ft 7s 6s 18 22 mph 1013.7mb 78f
1:50pm 7ft 7s 6s 18 20 mph 1014.2mb 78f
12:50pm 7ft 7s 6s 20 25 mph 1014.4mb 78f
11:50am 7ft 12s 6s 20 25 mph 1014.7mb 78f
10:50am 7ft 7s 6s 18 22 mph 1015.2mb 78f
9:50am 7ft 12s 6s 20 22 mph 1015.6mb 78f
8:50am 7ft 7s 6s 20 27 mph 1015.2mb 78f
7:50am 7ft 7s 6s 22 25 mph 1015.1mb 78f
6:50am 7.5ft 7s 6s 20 27 mph 1014.6mb 78f
5:50am 7ft 8s 6s 20 27 mph 1013.9mb 78f
4:50am 7ft 6s 6s 20 22 mph 1013.9mb 78f
3:50am 7ft 7s 6s 22 25 mph 1013.6mb 78f
2:50am 7.5ft 7s 6s 20 25 mph 1013.9mb 78f
1:50am 7.5ft 13s 6s 20 27 mph 1014.2mb 78f
12:50am 7ft 14s 6s 20 25 mph 1014.7mb 78f
Mon 05/22 11:50pm 7ft 13s 6s 22 31 mph 1015.4mb 78f
10:50pm 7ft 14s 6s 20 25 mph 1016mb 78f
9:50pm 6.5ft 14s 6s 22 27 mph 1015.9mb 78f
8:50pm 7ft 14s 6s 20 22 mph 1015.8mb 78f
7:50pm 6.5ft 14s 6s 22 27 mph 1015mb 78f
6:50pm 6ft 14s 6s 20 25 mph 1014.3mb 78f
5:50pm 6ft 14s 6s 20 22 mph 1014mb 78f
4:50pm 6ft 14s 6s 18 20 mph 1013.7mb 78f
3:50pm 6ft 7s 6s 18 20 mph 1013.9mb 78f
2:50pm 6ft 15s 6s 18 22 mph 1014.3mb 78f
1:50pm 6ft 15s 6s 16 18 mph 1014.5mb 78f
12:50pm 6.5ft 15s 6s 18 20 mph 1015mb 78f
11:50am 6.5ft 7s 6s 16 18 mph 1015.8mb 78f
10:50am 6.5ft 8s 6s 18 22 mph 1016mb 78f
9:50am 6ft 7s 6s 16 20 mph 1016.3mb 78f
8:50am 6ft 6s 6s 13 16 mph 1016.1mb 78f
7:50am 6ft 7s 6s 16 18 mph 1015.5mb 78f
6:50am 6ft 6s 6s 16 18 mph 1015.1mb 78f
5:50am 6ft 8s 6s 16 20 mph 1014.8mb 78f